createdAt,value
2018-08-31T10:07:10.219Z,19.84
2018-08-31T10:13:56.854Z,19.78
2018-08-31T10:15:22.661Z,19.82
2018-08-31T10:20:43.762Z,20.13
2018-08-31T10:22:09.827Z,20.14
2018-08-31T10:23:36.454Z,20.08
2018-08-31T10:25:04.030Z,19.94
2018-08-31T10:26:31.901Z,19.84
2018-08-31T10:27:58.971Z,19.84
2018-08-31T10:29:25.190Z,19.88
2018-08-31T10:30:52.558Z,19.98
2018-08-31T10:32:21.157Z,20.12
2018-08-31T10:33:48.520Z,20.25
2018-08-31T10:35:15.086Z,20.34
2018-08-31T10:36:43.568Z,20.37
2018-08-31T10:38:10.025Z,20.35
2018-08-31T10:39:38.205Z,20.34
2018-08-31T10:41:05.412Z,20.22
2018-08-31T10:42:32.998Z,20.12
2018-08-31T10:43:59.917Z,20.12
2018-08-31T10:45:25.978Z,20.15
2018-08-31T10:46:53.647Z,20.21
2018-08-31T10:48:21.106Z,20.28
2018-08-31T10:49:49.093Z,20.28
2018-08-31T10:51:16.710Z,20.36
2018-08-31T10:52:44.456Z,20.41
2018-08-31T10:54:10.828Z,20.53
2018-08-31T10:55:38.448Z,20.59
2018-08-31T10:57:05.918Z,20.63
2018-08-31T10:58:33.486Z,20.61
2018-08-31T11:00:00.897Z,20.63
2018-08-31T11:01:29.509Z,20.61
2018-08-31T11:02:55.276Z,20.66
2018-08-31T11:04:22.789Z,20.77
2018-08-31T11:05:50.104Z,20.89
2018-08-31T11:07:18.684Z,20.92
2018-08-31T11:08:45.091Z,20.97
2018-08-31T11:10:12.077Z,21.04
2018-08-31T11:11:40.708Z,21.11
2018-08-31T11:13:00.959Z,21.08
2018-08-31T11:14:33.387Z,20.95
2018-08-31T11:16:00.402Z,20.94
2018-08-31T11:17:27.026Z,20.93
2018-08-31T11:18:55.567Z,20.97
2018-08-31T11:20:21.933Z,21.05
2018-08-31T11:21:50.550Z,21.12
2018-08-31T11:23:16.928Z,21.18
2018-08-31T11:24:45.403Z,21.09
2018-08-31T11:26:12.962Z,21.03
2018-08-31T11:27:39.502Z,20.96
2018-08-31T11:29:07.073Z,20.93
2018-08-31T11:30:32.676Z,20.95
2018-08-31T11:32:00.207Z,21.08
2018-08-31T11:33:27.441Z,21.16
2018-08-31T11:34:55.096Z,21.28
2018-08-31T11:36:22.650Z,21.33
2018-08-31T11:37:49.998Z,21.34
2018-08-31T11:39:17.254Z,21.50
2018-08-31T11:40:44.881Z,21.69
2018-08-31T11:42:13.383Z,21.84
2018-08-31T11:43:39.684Z,21.92
2018-08-31T11:45:08.180Z,22.10
2018-08-31T11:46:34.504Z,22.18
2018-08-31T11:48:05.062Z,22.28
2018-08-31T11:50:56.132Z,22.37
2018-08-31T11:52:23.553Z,22.53
2018-08-31T11:53:51.135Z,22.68
2018-08-31T11:55:19.245Z,22.86
2018-08-31T11:56:45.708Z,23.01
2018-08-31T11:58:12.239Z,23.16
2018-08-31T11:59:40.810Z,23.30
2018-08-31T12:01:08.305Z,23.32
2018-08-31T12:02:35.595Z,23.32
2018-08-31T12:04:03.203Z,23.22
2018-08-31T12:05:29.997Z,23.26
2018-08-31T12:06:57.264Z,23.24
2018-08-31T12:08:24.197Z,23.16
2018-08-31T12:09:50.791Z,23.00
2018-08-31T12:11:18.228Z,22.90
2018-08-31T12:12:45.127Z,22.64
2018-08-31T12:14:10.530Z,22.34
2018-08-31T12:15:37.165Z,22.17
2018-08-31T12:17:07.647Z,22.18
2018-08-31T12:18:33.088Z,22.21
2018-08-31T12:20:00.456Z,22.23
2018-08-31T12:21:27.217Z,22.20
2018-08-31T12:22:53.765Z,22.16
2018-08-31T12:24:22.260Z,22.25
2018-08-31T12:25:48.768Z,22.25
2018-08-31T12:27:16.153Z,22.23
2018-08-31T12:28:43.507Z,22.20
2018-08-31T12:30:11.117Z,22.21
2018-08-31T12:31:38.559Z,22.19
2018-08-31T12:33:05.992Z,22.28
2018-08-31T12:34:32.287Z,22.44
2018-08-31T12:36:00.362Z,22.46
2018-08-31T12:37:26.497Z,22.51
2018-08-31T12:38:53.879Z,22.49
2018-08-31T12:40:21.528Z,22.50
2018-08-31T12:41:51.764Z,22.38
2018-08-31T12:43:15.474Z,22.33
2018-08-31T12:44:42.847Z,22.16
2018-08-31T12:46:11.522Z,22.01
2018-08-31T12:47:37.179Z,21.85
2018-08-31T12:49:04.723Z,21.84
2018-08-31T12:50:33.463Z,21.74
2018-08-31T12:51:59.633Z,21.81
2018-08-31T12:53:27.660Z,21.88
2018-08-31T12:54:54.966Z,21.96
2018-08-31T12:56:21.230Z,22.02
2018-08-31T12:57:49.820Z,22.04
2018-08-31T12:59:16.223Z,21.97
2018-08-31T13:00:44.687Z,21.96
2018-08-31T13:02:11.280Z,22.04
2018-08-31T13:03:37.758Z,22.07
2018-08-31T13:05:06.124Z,22.06
2018-08-31T13:06:32.314Z,22.13
2018-08-31T13:07:59.878Z,22.13
2018-08-31T13:09:27.922Z,21.95
2018-08-31T13:10:54.325Z,21.92
2018-08-31T13:12:23.001Z,21.75
2018-08-31T13:13:50.035Z,21.75
2018-08-31T13:15:15.398Z,21.77
2018-08-31T13:16:42.896Z,21.70
2018-08-31T13:18:11.476Z,21.61
2018-08-31T13:19:38.770Z,21.48
2018-08-31T13:21:06.120Z,21.46
2018-08-31T13:22:32.467Z,21.46
2018-08-31T13:23:59.910Z,21.52
2018-08-31T13:25:27.308Z,21.50
2018-08-31T13:26:54.881Z,21.45
2018-08-31T13:28:20.905Z,21.47
2018-08-31T13:29:49.276Z,21.50
2018-08-31T13:31:16.920Z,21.41
2018-08-31T13:32:44.016Z,21.38
2018-08-31T13:34:11.806Z,21.45
2018-08-31T13:35:37.610Z,21.48
2018-08-31T13:37:06.061Z,21.51
2018-08-31T13:38:33.392Z,21.60
2018-08-31T13:39:59.763Z,21.63
2018-08-31T13:41:28.247Z,21.60
2018-08-31T13:42:55.854Z,21.64
2018-08-31T13:44:22.253Z,21.58
2018-08-31T13:45:49.874Z,21.53
2018-08-31T13:47:17.314Z,21.55
2018-08-31T13:48:45.945Z,21.53
2018-08-31T13:50:12.179Z,21.52
2018-08-31T13:51:39.433Z,21.43
2018-08-31T13:53:07.183Z,21.37
2018-08-31T13:54:33.895Z,21.34
2018-08-31T13:56:00.185Z,21.32
2018-08-31T13:57:27.860Z,21.35
2018-08-31T13:58:54.276Z,21.30
2018-08-31T14:00:22.924Z,21.21
2018-08-31T14:01:48.811Z,21.08
2018-08-31T14:03:15.241Z,21.02
2018-08-31T14:04:43.031Z,20.95
2018-08-31T14:06:10.386Z,20.88
2018-08-31T14:07:38.718Z,20.88
2018-08-31T14:09:06.299Z,20.86
2018-08-31T14:10:32.477Z,20.86
2018-08-31T14:11:59.998Z,20.82
2018-08-31T14:13:25.547Z,20.77
2018-08-31T14:14:51.899Z,20.67
2018-08-31T14:16:19.428Z,20.63
2018-08-31T14:17:46.833Z,20.66
2018-08-31T14:19:14.087Z,20.60
2018-08-31T14:20:41.426Z,20.61
2018-08-31T14:22:08.745Z,20.62
2018-08-31T14:23:36.055Z,20.61
2018-08-31T14:25:01.622Z,20.57
2018-08-31T14:26:29.151Z,20.49
2018-08-31T14:27:56.431Z,20.45
2018-08-31T14:29:23.031Z,20.40
2018-08-31T14:30:50.466Z,20.36
2018-08-31T14:32:17.799Z,20.36
2018-08-31T14:33:44.766Z,20.40
2018-08-31T14:35:11.374Z,20.48
2018-08-31T14:36:39.781Z,20.51
2018-08-31T14:38:06.904Z,20.49
2018-08-31T14:39:33.052Z,20.50
2018-08-31T14:41:01.664Z,20.55
2018-08-31T14:42:28.492Z,20.59
2018-08-31T14:43:55.076Z,20.62
2018-08-31T14:45:23.527Z,20.66
2018-08-31T14:46:50.955Z,20.69
2018-08-31T14:48:17.405Z,20.70
2018-08-31T14:49:44.043Z,20.74
2018-08-31T14:51:11.707Z,20.81
2018-08-31T14:52:38.516Z,20.87
2018-08-31T14:54:06.869Z,20.89
2018-08-31T14:55:32.674Z,20.87
2018-08-31T14:56:59.503Z,20.91
2018-08-31T14:58:27.737Z,20.87
2018-08-31T14:59:54.352Z,20.87
2018-08-31T15:01:21.740Z,20.87
2018-08-31T15:02:47.213Z,20.86
2018-08-31T15:04:13.747Z,20.85
2018-08-31T15:05:40.995Z,20.81
2018-08-31T15:07:07.442Z,20.81
2018-08-31T15:08:34.677Z,20.78
2018-08-31T15:10:02.349Z,20.78
2018-08-31T15:11:30.917Z,20.75
2018-08-31T15:12:58.471Z,20.70
2018-08-31T15:14:23.779Z,20.69
2018-08-31T15:15:52.402Z,20.69
2018-08-31T15:17:18.818Z,20.68
2018-08-31T15:18:47.243Z,20.69
2018-08-31T15:20:14.852Z,20.62
2018-08-31T15:21:41.175Z,20.60
2018-08-31T15:23:09.775Z,20.59
2018-08-31T15:24:36.184Z,20.55
2018-08-31T15:26:03.698Z,20.52
2018-08-31T15:27:30.123Z,20.47
2018-08-31T15:28:57.695Z,20.46
2018-08-31T15:30:24.793Z,20.40
2018-08-31T15:31:52.518Z,20.39
2018-08-31T15:33:17.893Z,20.38
2018-08-31T15:34:46.223Z,20.36
2018-08-31T15:36:12.676Z,20.35
2018-08-31T15:37:40.312Z,20.33
2018-08-31T15:39:06.726Z,20.32
2018-08-31T15:40:35.117Z,20.29
2018-08-31T15:42:01.559Z,20.28
2018-08-31T15:43:29.132Z,20.28
2018-08-31T15:44:56.520Z,20.25
2018-08-31T15:46:25.170Z,20.22
2018-08-31T15:47:52.556Z,20.23
2018-08-31T15:49:17.958Z,20.24
2018-08-31T15:50:45.602Z,20.21
2018-08-31T15:52:14.100Z,20.18
2018-08-31T15:53:41.417Z,20.13
2018-08-31T15:55:06.899Z,20.07
2018-08-31T15:56:34.335Z,20.08
2018-08-31T15:58:03.012Z,20.06
2018-08-31T15:59:29.357Z,20.03
2018-08-31T16:00:56.230Z,20.05
2018-08-31T16:02:24.035Z,20.07
2018-08-31T16:03:50.315Z,20.06
2018-08-31T16:05:17.676Z,20.06
2018-08-31T16:06:46.140Z,20.04
2018-08-31T16:08:13.648Z,20.01
2018-08-31T16:09:40.893Z,20.01
2018-08-31T16:11:07.174Z,20.03
2018-08-31T16:12:34.827Z,20.01
2018-08-31T16:14:02.732Z,19.99
2018-08-31T16:15:30.195Z,19.98
2018-08-31T16:16:56.483Z,19.97
2018-08-31T16:18:24.895Z,19.96
2018-08-31T16:19:52.488Z,19.92
2018-08-31T16:21:20.029Z,19.91
2018-08-31T16:22:47.534Z,19.88
2018-08-31T16:24:14.937Z,19.87
2018-08-31T16:25:46.356Z,19.88
2018-08-31T16:27:07.880Z,19.89
2018-08-31T16:28:35.128Z,19.84
2018-08-31T16:30:01.755Z,19.78
2018-08-31T16:31:29.050Z,19.75
2018-08-31T16:32:56.321Z,19.70
2018-08-31T16:34:23.642Z,19.65
2018-08-31T16:35:51.387Z,19.61
2018-08-31T16:37:19.756Z,19.59
2018-08-31T16:38:47.174Z,19.57
2018-08-31T16:40:12.567Z,19.53
2018-08-31T16:41:39.863Z,19.54
2018-08-31T16:43:06.567Z,19.54
2018-08-31T16:44:33.005Z,19.52
2018-08-31T16:46:01.464Z,19.49
2018-08-31T16:47:28.979Z,19.51
2018-08-31T16:48:56.385Z,19.54
2018-08-31T16:50:21.808Z,19.56
2018-08-31T16:51:49.063Z,19.57
2018-08-31T16:53:17.726Z,19.52
2018-08-31T16:54:45.083Z,19.50
2018-08-31T16:56:11.415Z,19.51
2018-08-31T16:57:38.815Z,19.51
2018-08-31T16:59:05.024Z,19.51
2018-08-31T17:00:32.405Z,19.52
2018-08-31T17:02:00.836Z,19.52
2018-08-31T17:03:27.969Z,19.53
2018-08-31T17:04:56.327Z,19.54
2018-08-31T17:06:19.613Z,19.54
2018-08-31T17:07:46.222Z,19.53
2018-08-31T17:09:14.749Z,19.52
2018-08-31T17:10:39.977Z,19.51
2018-08-31T17:12:07.803Z,19.41
2018-08-31T17:13:33.939Z,19.39
2018-08-31T17:15:02.594Z,19.37
2018-08-31T17:16:30.066Z,19.37
2018-08-31T17:17:56.374Z,19.36
2018-08-31T17:19:24.917Z,19.33
2018-08-31T17:20:50.712Z,19.33
2018-08-31T17:22:18.144Z,19.31
2018-08-31T17:23:43.519Z,19.29
2018-08-31T17:25:10.956Z,19.27
2018-08-31T17:26:38.029Z,19.23
2018-08-31T17:28:05.674Z,19.15
2018-08-31T17:29:33.224Z,19.07
2018-08-31T17:30:59.693Z,19.02
2018-08-31T17:32:27.486Z,19.02
2018-08-31T17:33:53.821Z,19.01
2018-08-31T17:35:22.388Z,18.99
2018-08-31T17:36:48.702Z,18.92
2018-08-31T17:38:15.136Z,18.89
2018-08-31T17:39:41.215Z,18.86
2018-08-31T17:41:07.663Z,18.85
2018-08-31T17:42:35.772Z,18.85
2018-08-31T17:44:03.222Z,18.85
2018-08-31T17:45:29.163Z,18.84
2018-08-31T17:46:57.619Z,18.81
2018-08-31T17:48:23.197Z,18.72
2018-08-31T17:49:51.495Z,18.65
2018-08-31T17:51:17.865Z,18.60
2018-08-31T17:52:45.284Z,18.52
2018-08-31T17:54:12.796Z,18.45
2018-08-31T17:55:41.311Z,18.44
2018-08-31T17:57:08.831Z,18.44
2018-08-31T17:58:36.282Z,18.45
2018-08-31T18:00:03.765Z,18.45
2018-08-31T18:01:28.977Z,18.43
2018-08-31T18:02:56.350Z,18.41
2018-08-31T18:04:23.762Z,18.40
2018-08-31T18:05:51.262Z,18.39
2018-08-31T18:07:18.676Z,18.35
2018-08-31T18:08:47.289Z,18.32
2018-08-31T18:10:13.846Z,18.28
2018-08-31T18:11:42.400Z,18.25
2018-08-31T18:41:44.463Z,18.23
